Time;durP1;ratioP1;P1;durP2;ratioP2;P2;SDS_P1;SDS_P2;PMS_P1;PMS_P2;Temp;Humidity;BMP_temperature;BMP_pressure;BME280_temperature;BME280_humidity;BME280_pressure;Samples;Min_cycle;Max_cycle;Signal;HPM_P1;HPM_P2
2021/01/31 00:00:35;;;;;;;0.17;0.05;;;12.10;85.60;;;;;;5048834;28;20033;-80
2021/01/31 00:03:01;;;;;;;0.65;0.00;;;12.10;85.60;;;;;;5048982;28;20021;-79
2021/01/31 00:05:28;;;;;;;1.40;1.10;;;12.10;85.60;;;;;;5050410;28;20036;-82
2021/01/31 00:07:54;;;;;;;0.40;0.20;;;12.10;85.70;;;;;;5048605;28;20396;-79
2021/01/31 00:10:26;;;;;;;0.10;0.00;;;12.10;85.60;;;;;;5048438;28;20503;-79
2021/01/31 00:12:52;;;;;;;0.25;0.05;;;12.10;85.70;;;;;;5049330;28;20441;-78
2021/01/31 00:15:19;;;;;;;0.63;0.00;;;12.10;85.70;;;;;;5050081;28;20393;-78
2021/01/31 00:17:45;;;;;;;0.10;0.10;;;12.10;85.80;;;;;;5048766;28;20373;-80
2021/01/31 00:20:13;;;;;;;0.47;0.20;;;12.10;85.80;;;;;;5050680;28;20393;-78
2021/01/31 00:22:39;;;;;;;7.65;0.15;;;12.10;85.70;;;;;;5048320;28;20029;-78
2021/01/31 00:25:06;;;;;;;0.25;0.08;;;12.10;85.80;;;;;;5049492;28;20021;-78
2021/01/31 00:27:32;;;;;;;0.00;0.00;;;12.10;85.80;;;;;;5016478;28;20037;-78
2021/01/31 00:29:58;;;;;;;0.55;0.10;;;12.10;85.80;;;;;;5049996;28;20029;-78
2021/01/31 00:32:25;;;;;;;0.82;0.47;;;12.10;85.80;;;;;;5038295;28;20095;-79
2021/01/31 00:34:52;;;;;;;0.38;0.17;;;12.10;85.80;;;;;;5032287;28;20044;-78
2021/01/31 00:37:18;;;;;;;0.00;0.00;;;12.10;85.80;;;;;;5049956;28;20386;-78
2021/01/31 00:39:46;;;;;;;1.80;0.25;;;12.20;85.90;;;;;;5046919;28;20036;-78
2021/01/31 00:42:16;;;;;;;0.70;0.30;;;12.10;85.90;;;;;;5049590;28;20048;-78
2021/01/31 00:44:49;;;;;;;2.47;0.30;;;12.10;85.90;;;;;;5048754;28;20045;-78
2021/01/31 00:47:15;;;;;;;5.25;0.10;;;12.00;85.90;;;;;;5045587;28;20041;-78
2021/01/31 00:49:47;;;;;;;0.32;0.20;;;12.00;85.90;;;;;;5040145;28;20382;-78
2021/01/31 00:52:13;;;;;;;4.20;0.20;;;12.00;86.10;;;;;;5040546;28;20056;-79
2021/01/31 00:54:39;;;;;;;0.10;0.00;;;12.00;86.10;;;;;;5049642;28;20029;-80
2021/01/31 00:57:05;;;;;;;1.67;0.28;;;12.00;86.10;;;;;;5048218;28;20408;-79
2021/01/31 00:59:32;;;;;;;0.70;0.30;;;12.00;86.10;;;;;;5030595;28;20044;-82
2021/01/31 01:01:59;;;;;;;0.00;0.00;;;12.00;86.10;;;;;;5048904;28;20037;-78
2021/01/31 01:04:25;;;;;;;3.95;0.43;;;12.00;86.10;;;;;;5048365;28;20403;-80
2021/01/31 01:06:51;;;;;;;0.57;0.10;;;12.00;86.10;;;;;;5049865;28;20056;-78
2021/01/31 01:09:17;;;;;;;2.05;0.90;;;12.00;86.10;;;;;;5047819;28;20025;-81
2021/01/31 01:11:43;;;;;;;0.10;0.00;;;12.00;86.10;;;;;;5050391;28;20550;-81
2021/01/31 01:14:09;;;;;;;0.35;0.00;;;12.00;86.10;;;;;;5050598;28;20756;-77
2021/01/31 01:16:35;;;;;;;1.48;0.00;;;12.00;86.00;;;;;;5049341;28;20037;-79
2021/01/31 01:19:03;;;;;;;0.35;0.17;;;12.00;86.10;;;;;;5049765;28;20025;-78
2021/01/31 01:21:30;;;;;;;0.00;0.00;;;12.00;86.00;;;;;;5032394;28;20052;-79
2021/01/31 01:23:57;;;;;;;0.08;0.00;;;12.10;86.10;;;;;;5043202;28;20021;-79
2021/01/31 01:26:30;;;;;;;3.30;0.22;;;12.00;86.10;;;;;;5050327;28;20385;-80
2021/01/31 01:28:56;;;;;;;0.05;0.00;;;12.00;86.10;;;;;;5047909;28;20029;-81
2021/01/31 01:31:22;;;;;;;4.05;0.70;;;12.00;86.00;;;;;;5047384;28;20044;-78
2021/01/31 01:33:49;;;;;;;2.28;0.20;;;12.00;86.10;;;;;;5032872;28;20045;-80
2021/01/31 01:36:15;;;;;;;2.22;0.25;;;12.00;86.10;;;;;;5049503;28;20376;-82
2021/01/31 01:38:41;;;;;;;0.63;0.00;;;12.00;86.10;;;;;;5048702;28;20512;-78
2021/01/31 01:41:07;;;;;;;0.00;0.00;;;12.00;86.20;;;;;;5051512;28;20029;-79
2021/01/31 01:43:33;;;;;;;0.75;0.00;;;12.00;86.20;;;;;;5048695;28;20056;-79
2021/01/31 01:46:17;;;;;;;1.15;0.10;;;12.00;86.20;;;;;;5048671;28;20029;-79
2021/01/31 01:48:51;;;;;;;1.25;0.10;;;12.00;86.20;;;;;;5049987;28;20033;-79
2021/01/31 01:51:17;;;;;;;0.65;0.03;;;11.90;86.20;;;;;;5032942;28;20044;-78
2021/01/31 01:53:43;;;;;;;0.10;0.05;;;11.90;86.20;;;;;;5031660;28;20049;-80
2021/01/31 01:56:24;;;;;;;3.90;0.22;;;11.90;86.30;;;;;;5033874;28;20056;-78
2021/01/31 01:58:53;;;;;;;0.00;0.00;;;11.90;86.40;;;;;;5051796;28;20033;-79
2021/01/31 02:01:19;;;;;;;0.10;0.00;;;11.90;86.20;;;;;;5051203;28;20033;-77
2021/01/31 02:03:46;;;;;;;0.20;0.10;;;11.90;86.30;;;;;;5050148;28;20389;-79
2021/01/31 02:06:23;;;;;;;0.17;0.03;;;11.90;86.40;;;;;;5051365;28;20051;-78
2021/01/31 02:08:50;;;;;;;1.88;0.55;;;11.90;86.40;;;;;;5051972;28;20025;-79
2021/01/31 02:11:16;;;;;;;0.38;0.05;;;11.90;86.50;;;;;;5037344;28;20036;-78
2021/01/31 02:13:45;;;;;;;0.28;0.15;;;11.90;86.50;;;;;;5052706;28;20055;-78
2021/01/31 02:16:42;;;;;;;0.00;0.00;;;11.90;86.60;;;;;;5031126;28;20045;-78
2021/01/31 02:19:35;;;;;;;0.40;0.08;;;11.90;86.50;;;;;;5015804;28;20051;-77
2021/01/31 02:22:32;;;;;;;0.63;0.10;;;11.90;86.40;;;;;;5052702;28;20029;-79
2021/01/31 02:25:42;;;;;;;0.00;0.00;;;12.00;86.40;;;;;;5052878;28;20408;-78
2021/01/31 02:28:19;;;;;;;0.52;0.30;;;12.00;86.30;;;;;;5008926;28;20060;-79
2021/01/31 02:31:06;;;;;;;1.58;0.20;;;11.90;86.20;;;;;;4981028;28;20034;-78
2021/01/31 02:33:57;;;;;;;0.60;0.10;;;11.90;86.20;;;;;;4994330;28;20046;-78
2021/01/31 02:36:41;;;;;;;0.20;0.10;;;11.90;86.30;;;;;;4989788;28;20554;-78
2021/01/31 02:39:21;;;;;;;0.30;0.10;;;11.90;86.30;;;;;;5009259;28;20034;-78
2021/01/31 02:42:15;;;;;;;0.35;0.10;;;11.90;86.40;;;;;;4993756;28;20038;-77
2021/01/31 02:44:42;;;;;;;4.13;0.50;;;11.90;86.40;;;;;;4994309;28;20044;-79
2021/01/31 02:47:13;;;;;;;4.90;0.10;;;12.00;86.30;;;;;;4993232;28;20537;-78
2021/01/31 02:49:40;;;;;;;0.80;0.20;;;12.00;86.40;;;;;;4970319;28;20071;-78
2021/01/31 02:52:28;;;;;;;1.17;0.30;;;11.90;86.30;;;;;;4987877;28;20037;-77
2021/01/31 02:55:09;;;;;;;4.95;0.55;;;12.00;86.30;;;;;;4997940;28;20038;-80
2021/01/31 02:58:08;;;;;;;0.52;0.30;;;12.00;86.30;;;;;;5009095;28;20026;-78
2021/01/31 03:00:50;;;;;;;0.90;0.10;;;12.00;86.40;;;;;;4986396;28;20408;-79
2021/01/31 03:03:32;;;;;;;3.75;0.20;;;12.00;86.40;;;;;;5045636;28;20039;-80
2021/01/31 03:05:58;;;;;;;0.15;0.10;;;12.00;86.40;;;;;;5044241;28;20037;-78
2021/01/31 03:08:36;;;;;;;1.92;0.10;;;12.00;86.30;;;;;;5034143;28;20029;-79
2021/01/31 03:11:13;;;;;;;0.98;0.20;;;12.00;86.30;;;;;;5050604;28;20033;-79
2021/01/31 03:13:51;;;;;;;0.52;0.20;;;12.00;86.30;;;;;;5033584;28;20044;-78
2021/01/31 03:16:21;;;;;;;0.28;0.15;;;12.00;86.30;;;;;;5045988;28;20394;-79
2021/01/31 03:19:15;;;;;;;0.63;0.10;;;12.00;86.30;;;;;;5032445;28;20049;-79
2021/01/31 03:21:44;;;;;;;7.85;0.80;;;12.00;86.30;;;;;;5021737;28;20049;-81
2021/01/31 03:24:32;;;;;;;0.30;0.10;;;12.00;86.30;;;;;;4992860;28;20417;-78
2021/01/31 03:27:28;;;;;;;1.83;0.10;;;12.00;86.30;;;;;;4991298;28;20372;-79
2021/01/31 03:29:54;;;;;;;0.43;0.17;;;12.00;86.40;;;;;;4969113;28;20049;-79
2021/01/31 03:32:26;;;;;;;0.65;0.20;;;12.00;86.40;;;;;;5008039;28;20390;-77
2021/01/31 03:34:59;;;;;;;3.17;0.20;;;12.00;86.40;;;;;;5005282;28;20058;-79
2021/01/31 03:37:32;;;;;;;1.42;0.32;;;11.90;86.40;;;;;;4993156;28;20045;-79
2021/01/31 03:39:58;;;;;;;1.98;0.17;;;11.90;86.50;;;;;;4993147;28;20037;-78
2021/01/31 03:42:24;;;;;;;0.73;0.20;;;11.90;86.60;;;;;;4992581;28;20044;-79
2021/01/31 03:44:50;;;;;;;0.10;0.10;;;11.80;86.60;;;;;;5025904;28;20366;-79
2021/01/31 03:47:26;;;;;;;7.18;0.47;;;11.80;86.60;;;;;;5010232;28;20038;-78
2021/01/31 03:49:55;;;;;;;1.05;0.20;;;11.80;86.60;;;;;;4995803;28;20548;-78
2021/01/31 03:52:24;;;;;;;0.77;0.20;;;11.80;86.60;;;;;;4993824;28;20037;-78
2021/01/31 03:54:51;;;;;;;0.22;0.13;;;11.80;86.60;;;;;;4992719;28;20046;-83
2021/01/31 03:57:23;;;;;;;0.00;0.00;;;11.80;86.60;;;;;;4993413;28;20030;-78
2021/01/31 03:59:55;;;;;;;2.28;0.28;;;11.80;86.60;;;;;;5046563;28;20060;-80
2021/01/31 04:02:24;;;;;;;2.97;0.50;;;11.90;86.70;;;;;;5007571;28;20040;-79
2021/01/31 04:04:50;;;;;;;10.70;0.65;;;11.90;86.70;;;;;;5049647;28;20029;-78
2021/01/31 04:07:20;;;;;;;0.45;0.10;;;11.90;86.70;;;;;;5049731;28;20041;-79
2021/01/31 04:09:46;;;;;;;6.38;1.15;;;11.90;86.70;;;;;;5049421;28;20024;-78
2021/01/31 04:12:15;;;;;;;0.60;0.40;;;11.90;86.70;;;;;;5049840;28;20045;-78
2021/01/31 04:14:46;;;;;;;2.92;0.63;;;11.90;86.70;;;;;;5033501;28;20029;-78
2021/01/31 04:17:12;;;;;;;0.10;0.00;;;11.90;86.70;;;;;;5032718;28;20044;-79
2021/01/31 04:19:38;;;;;;;0.93;0.30;;;11.90;86.70;;;;;;5049803;28;20033;-78
2021/01/31 04:22:04;;;;;;;7.95;0.63;;;11.90;86.70;;;;;;5049135;28;20031;-79
2021/01/31 04:24:30;;;;;;;6.10;0.93;;;11.80;86.60;;;;;;5050296;28;20035;-79
2021/01/31 04:26:56;;;;;;;0.70;0.20;;;11.90;86.70;;;;;;5031660;28;20037;-78
2021/01/31 04:29:22;;;;;;;6.47;1.75;;;11.90;86.70;;;;;;5051846;28;20036;-78
2021/01/31 04:31:48;;;;;;;2.75;0.55;;;11.90;86.70;;;;;;5049389;28;20493;-79
2021/01/31 04:34:14;;;;;;;2.08;0.88;;;11.90;86.70;;;;;;5050315;28;20037;-78
2021/01/31 04:36:41;;;;;;;0.77;0.40;;;11.90;86.70;;;;;;5048923;28;20495;-78
2021/01/31 04:39:07;;;;;;;2.63;0.50;;;11.90;86.70;;;;;;5049795;28;20100;-78
2021/01/31 04:41:37;;;;;;;0.30;0.10;;;12.00;86.80;;;;;;5050313;28;20032;-78
2021/01/31 04:44:04;;;;;;;2.70;0.38;;;12.00;86.70;;;;;;5050043;28;20021;-78
2021/01/31 04:46:49;;;;;;;2.28;0.75;;;12.00;86.70;;;;;;5020888;28;20500;-78
2021/01/31 04:49:37;;;;;;;5.22;0.68;;;12.00;86.70;;;;;;5043518;28;20033;-80
2021/01/31 04:52:22;;;;;;;13.00;0.75;;;12.00;86.70;;;;;;5016825;28;20484;-78
2021/01/31 04:55:04;;;;;;;1.83;0.25;;;11.90;86.70;;;;;;5049185;28;20037;-79
2021/01/31 04:57:40;;;;;;;1.40;0.47;;;12.00;86.80;;;;;;5048853;28;20033;-78
2021/01/31 05:00:09;;;;;;;5.75;0.20;;;12.00;86.70;;;;;;5018649;28;20033;-78
2021/01/31 05:02:38;;;;;;;2.38;0.30;;;12.00;86.70;;;;;;5050165;28;20028;-80
2021/01/31 05:05:06;;;;;;;4.00;0.75;;;12.00;86.70;;;;;;5047013;28;20021;-80
2021/01/31 05:07:44;;;;;;;0.80;0.38;;;12.00;86.70;;;;;;5041517;28;20060;-78
2021/01/31 05:10:11;;;;;;;0.82;0.25;;;12.00;86.70;;;;;;5041301;28;20039;-78
2021/01/31 05:12:57;;;;;;;0.38;0.08;;;12.00;86.80;;;;;;5048693;28;20025;-78
2021/01/31 05:15:27;;;;;;;3.00;0.55;;;12.00;86.70;;;;;;5048506;28;20048;-78
2021/01/31 05:17:55;;;;;;;0.90;0.20;;;12.00;86.70;;;;;;5032406;28;20025;-78
2021/01/31 05:20:23;;;;;;;0.35;0.20;;;12.00;86.80;;;;;;5050095;28;20703;-78
2021/01/31 05:22:52;;;;;;;0.28;0.15;;;12.00;86.70;;;;;;5032114;28;20032;-78
2021/01/31 05:25:26;;;;;;;0.13;0.08;;;12.00;86.80;;;;;;5048215;28;20469;-78
2021/01/31 05:27:57;;;;;;;0.60;0.20;;;12.00;86.70;;;;;;5048503;28;20029;-78
2021/01/31 05:30:24;;;;;;;1.10;0.70;;;12.00;86.80;;;;;;5047923;28;20025;-78
2021/01/31 05:33:22;;;;;;;3.65;0.47;;;12.00;86.80;;;;;;5034865;28;20505;-78
2021/01/31 05:36:08;;;;;;;2.15;0.30;;;12.00;86.80;;;;;;5031859;28;20101;-78
2021/01/31 05:38:41;;;;;;;0.05;0.00;;;12.00;86.80;;;;;;5025629;28;20048;-78
2021/01/31 05:41:41;;;;;;;1.08;0.47;;;12.00;86.70;;;;;;5017071;28;20026;-79
2021/01/31 05:44:16;;;;;;;0.30;0.20;;;12.00;86.80;;;;;;5032886;28;20037;-80
2021/01/31 05:46:45;;;;;;;0.95;0.22;;;12.00;86.80;;;;;;5028068;28;20025;-78
2021/01/31 05:49:28;;;;;;;0.80;0.30;;;11.90;86.90;;;;;;5010915;28;20033;-78
2021/01/31 05:51:55;;;;;;;1.95;0.52;;;11.90;86.90;;;;;;5027414;28;20029;-78
2021/01/31 05:54:35;;;;;;;1.10;0.35;;;11.90;86.90;;;;;;5012167;28;20046;-77
2021/01/31 05:57:01;;;;;;;0.15;0.10;;;11.80;87.00;;;;;;4983287;28;20045;-78
2021/01/31 05:59:45;;;;;;;1.33;0.50;;;11.80;87.00;;;;;;5010658;28;20490;-78
2021/01/31 06:02:22;;;;;;;1.48;0.50;;;11.80;87.10;;;;;;5030039;28;20038;-77
2021/01/31 06:04:51;;;;;;;0.38;0.08;;;11.80;87.00;;;;;;5015680;28;20045;-77
2021/01/31 06:07:18;;;;;;;0.03;0.00;;;11.80;87.00;;;;;;5010658;28;20053;-78
2021/01/31 06:09:48;;;;;;;2.85;0.43;;;11.80;87.00;;;;;;5011301;28;20486;-78
2021/01/31 06:12:25;;;;;;;2.38;0.35;;;11.80;87.00;;;;;;5042719;28;20983;-78
2021/01/31 06:15:05;;;;;;;0.85;0.20;;;11.80;87.10;;;;;;5035155;28;20043;-78
2021/01/31 06:17:32;;;;;;;2.33;0.30;;;11.80;87.10;;;;;;5032453;28;20040;-79
2021/01/31 06:20:28;;;;;;;0.08;0.03;;;11.80;87.10;;;;;;5049913;28;20029;-78
2021/01/31 06:22:54;;;;;;;0.05;0.03;;;11.80;87.10;;;;;;5039207;28;20028;-78
2021/01/31 06:25:26;;;;;;;0.60;0.10;;;11.80;87.10;;;;;;5051656;28;20037;-77
2021/01/31 06:28:10;;;;;;;0.30;0.10;;;11.70;87.20;;;;;;5051622;28;20378;-80
2021/01/31 06:31:13;;;;;;;0.80;0.20;;;11.70;87.30;;;;;;5052331;28;20048;-77
2021/01/31 06:33:39;;;;;;;1.75;0.28;;;11.70;87.30;;;;;;5038146;28;20522;-77
2021/01/31 06:36:31;;;;;;;0.75;0.22;;;11.70;87.20;;;;;;5050748;28;20021;-78
2021/01/31 06:39:27;;;;;;;0.40;0.13;;;11.70;87.20;;;;;;5051149;28;20470;-79
2021/01/31 06:42:12;;;;;;;0.10;0.10;;;11.70;87.20;;;;;;5051826;28;20397;-81
2021/01/31 06:44:47;;;;;;;1.92;0.52;;;11.70;87.20;;;;;;5012743;28;20363;-78
2021/01/31 06:47:28;;;;;;;0.85;0.20;;;11.70;87.20;;;;;;5051816;28;20119;-78
2021/01/31 06:50:09;;;;;;;0.65;0.10;;;11.80;87.20;;;;;;5051636;28;20025;-78
2021/01/31 06:52:44;;;;;;;0.43;0.28;;;11.80;87.20;;;;;;5048441;28;20029;-80
2021/01/31 06:55:48;;;;;;;0.30;0.10;;;11.80;87.20;;;;;;5048169;28;20396;-77
2021/01/31 06:58:38;;;;;;;0.17;0.10;;;11.80;87.10;;;;;;5051633;28;20041;-78
2021/01/31 07:01:25;;;;;;;2.03;0.40;;;11.80;87.10;;;;;;5050002;28;20037;-78
2021/01/31 07:04:10;;;;;;;0.00;0.00;;;11.80;87.10;;;;;;5051427;28;20033;-78
2021/01/31 07:06:53;;;;;;;0.45;0.22;;;11.80;87.10;;;;;;5044365;28;20041;-77
2021/01/31 07:09:32;;;;;;;4.10;0.32;;;11.80;87.10;;;;;;5036639;28;20041;-78
2021/01/31 07:12:18;;;;;;;0.32;0.03;;;11.80;87.10;;;;;;5046392;28;20033;-79
2021/01/31 07:14:51;;;;;;;0.00;0.00;;;11.80;87.10;;;;;;5048627;28;20041;-77
2021/01/31 07:17:26;;;;;;;0.25;0.10;;;11.80;87.10;;;;;;5031420;28;20497;-78
2021/01/31 07:19:59;;;;;;;0.30;0.20;;;11.80;87.20;;;;;;5051204;28;20377;-78
2021/01/31 07:22:40;;;;;;;0.32;0.20;;;11.80;87.20;;;;;;5034191;28;20492;-77
2021/01/31 07:25:38;;;;;;;0.10;0.00;;;11.80;88.00;;;;;;5050105;28;20040;-78
2021/01/31 07:28:24;;;;;;;0.13;0.00;;;11.80;87.30;;;;;;5019537;28;20044;-79
2021/01/31 07:30:56;;;;;;;0.10;0.03;;;11.80;87.20;;;;;;5042397;28;20033;-77
2021/01/31 07:33:36;;;;;;;0.20;0.00;;;11.80;87.20;;;;;;5049717;28;20464;-77
2021/01/31 07:36:15;;;;;;;0.10;0.00;;;11.80;87.30;;;;;;5044455;28;20033;-77
2021/01/31 07:38:48;;;;;;;0.08;0.03;;;11.80;87.20;;;;;;5033116;28;20045;-77
2021/01/31 07:41:14;;;;;;;0.43;0.13;;;11.80;87.20;;;;;;5049991;28;20033;-77
2021/01/31 07:43:40;;;;;;;0.20;0.10;;;11.80;87.20;;;;;;5050992;28;20412;-77
2021/01/31 07:46:10;;;;;;;0.20;0.10;;;11.80;87.20;;;;;;5049332;28;20043;-78
2021/01/31 07:48:44;;;;;;;0.67;0.10;;;11.80;87.20;;;;;;5032060;28;20017;-78
2021/01/31 07:51:11;;;;;;;0.30;0.13;;;11.80;87.30;;;;;;5035196;28;20033;-78
2021/01/31 07:53:41;;;;;;;1.33;0.08;;;11.80;87.30;;;;;;5033813;28;20033;-78
2021/01/31 07:56:26;;;;;;;0.35;0.03;;;11.90;87.30;;;;;;5032885;28;20377;-77
2021/01/31 07:59:12;;;;;;;0.10;0.00;;;11.90;87.30;;;;;;5050510;28;20517;-77
2021/01/31 08:01:41;;;;;;;5.05;0.20;;;11.90;87.20;;;;;;5042288;28;20033;-78
2021/01/31 08:04:17;;;;;;;0.30;0.20;;;11.90;87.20;;;;;;5047383;28;20048;-78
2021/01/31 08:06:54;;;;;;;0.47;0.17;;;11.90;87.20;;;;;;5047987;28;20048;-78
2021/01/31 08:09:26;;;;;;;0.25;0.08;;;11.90;87.10;;;;;;5033537;28;20060;-79
2021/01/31 08:12:01;;;;;;;0.25;0.08;;;12.00;87.30;;;;;;5049787;28;20400;-80
2021/01/31 08:15:05;;;;;;;0.50;0.00;;;12.00;87.20;;;;;;5056703;28;20045;-80
2021/01/31 08:17:53;;;;;;;0.93;0.00;;;12.00;87.20;;;;;;5050963;28;20044;-80
2021/01/31 08:20:27;;;;;;;0.00;0.00;;;12.00;87.20;;;;;;5051798;28;20025;-79
2021/01/31 08:23:12;;;;;;;0.00;0.00;;;12.00;87.20;;;;;;5050732;28;20052;-80
2021/01/31 08:25:59;;;;;;;0.25;0.00;;;11.90;87.10;;;;;;5051990;28;20021;-79
2021/01/31 08:28:26;;;;;;;0.00;0.00;;;11.90;87.10;;;;;;5050543;28;20033;-77
2021/01/31 08:31:02;;;;;;;0.00;0.00;;;11.90;87.20;;;;;;5051143;28;20386;-80
2021/01/31 08:33:36;;;;;;;0.00;0.00;;;11.90;87.10;;;;;;5050204;28;20040;-78
2021/01/31 08:36:31;;;;;;;0.25;0.00;;;12.00;87.20;;;;;;5031426;28;20037;-78
2021/01/31 08:38:58;;;;;;;0.00;0.00;;;12.00;87.20;;;;;;5044191;28;20048;-79
2021/01/31 08:41:38;;;;;;;0.00;0.00;;;12.00;87.10;;;;;;5050947;28;20040;-78
2021/01/31 08:44:10;;;;;;;0.20;0.00;;;12.10;87.10;;;;;;5034467;28;20025;-79
2021/01/31 08:46:56;;;;;;;0.00;0.00;;;12.20;87.00;;;;;;5048768;28;20037;-79
2021/01/31 08:49:22;;;;;;;0.00;0.00;;;12.20;86.90;;;;;;5048598;28;20402;-79
2021/01/31 08:51:56;;;;;;;0.00;0.00;;;12.30;86.90;;;;;;5048112;28;20028;-81
2021/01/31 08:54:22;;;;;;;0.20;0.00;;;12.40;86.90;;;;;;5032852;28;20049;-80
2021/01/31 08:57:11;;;;;;;0.13;0.10;;;12.40;86.70;;;;;;5045510;28;20385;-79
2021/01/31 08:59:44;;;;;;;0.22;0.00;;;12.50;86.60;;;;;;5033612;28;20017;-79
2021/01/31 09:02:13;;;;;;;0.47;0.10;;;12.50;86.50;;;;;;5023693;28;20041;-79
2021/01/31 09:04:56;;;;;;;0.30;0.13;;;12.50;86.50;;;;;;5049374;28;20033;-79
2021/01/31 09:07:35;;;;;;;0.57;0.13;;;12.50;86.60;;;;;;5018398;28;20397;-80
2021/01/31 09:10:13;;;;;;;0.57;0.25;;;12.50;86.60;;;;;;5049377;28;20484;-80
2021/01/31 09:12:39;;;;;;;0.98;0.17;;;12.50;86.70;;;;;;5050108;28;20033;-78
2021/01/31 09:15:37;;;;;;;0.22;0.00;;;12.50;86.70;;;;;;5049381;28;20033;-79
2021/01/31 09:18:14;;;;;;;0.50;0.20;;;12.50;86.70;;;;;;5003498;28;20030;-80
2021/01/31 09:20:42;;;;;;;0.10;0.00;;;12.50;86.70;;;;;;4993664;28;20050;-79
2021/01/31 09:23:11;;;;;;;1.65;0.20;;;12.60;86.70;;;;;;5002495;28;20394;-79
2021/01/31 09:25:38;;;;;;;1.33;0.55;;;12.60;86.60;;;;;;5007879;28;20453;-79
2021/01/31 09:28:10;;;;;;;3.53;0.80;;;12.60;86.60;;;;;;4992607;28;20449;-79
2021/01/31 09:30:38;;;;;;;2.25;0.85;;;12.60;86.60;;;;;;4991633;28;20149;-78
2021/01/31 09:33:12;;;;;;;2.72;0.82;;;12.60;86.60;;;;;;4959982;28;20371;-79
2021/01/31 09:35:39;;;;;;;0.25;0.10;;;12.60;86.50;;;;;;4976711;28;20041;-78
2021/01/31 09:38:23;;;;;;;4.60;0.30;;;12.60;86.50;;;;;;4992582;28;20034;-79
2021/01/31 09:40:49;;;;;;;5.75;0.98;;;12.60;86.50;;;;;;4975874;28;20034;-78
2021/01/31 09:43:19;;;;;;;4.32;1.10;;;12.60;86.60;;;;;;4988515;28;20038;-77
2021/01/31 09:45:51;;;;;;;2.00;0.30;;;12.60;86.70;;;;;;4971114;28;20042;-78
2021/01/31 09:48:19;;;;;;;0.90;0.40;;;12.50;86.60;;;;;;4973054;28;20042;-79
2021/01/31 09:50:50;;;;;;;0.20;0.20;;;12.50;86.60;;;;;;4975965;28;20041;-78
2021/01/31 09:53:26;;;;;;;0.00;0.00;;;12.50;86.70;;;;;;5009039;28;20400;-78
2021/01/31 09:55:52;;;;;;;0.38;0.10;;;12.50;86.70;;;;;;5045023;28;20547;-78
2021/01/31 09:58:22;;;;;;;0.25;0.10;;;12.50;86.70;;;;;;5043195;28;20029;-78
2021/01/31 10:00:49;;;;;;;1.90;0.30;;;12.50;86.70;;;;;;5041661;28;20389;-79
2021/01/31 10:03:24;;;;;;;0.73;0.10;;;12.50;86.80;;;;;;5042080;28;20032;-79
2021/01/31 10:06:18;;;;;;;2.67;1.05;;;12.50;86.70;;;;;;5049105;28;20029;-78
2021/01/31 10:08:57;;;;;;;1.17;0.32;;;12.60;86.80;;;;;;5048099;28;20099;-79
2021/01/31 10:11:25;;;;;;;1.73;0.77;;;12.60;86.60;;;;;;5049624;28;20052;-78
2021/01/31 10:13:51;;;;;;;5.45;0.30;;;12.60;86.60;;;;;;5032057;28;20108;-79
2021/01/31 10:16:25;;;;;;;0.95;0.15;;;12.60;86.50;;;;;;5045891;28;20033;-78
2021/01/31 10:18:51;;;;;;;0.00;0.00;;;12.60;86.60;;;;;;5015792;28;20496;-79
2021/01/31 10:21:23;;;;;;;0.43;0.10;;;12.60;86.60;;;;;;5053958;28;20033;-79
2021/01/31 10:23:50;;;;;;;0.20;0.00;;;12.60;86.60;;;;;;5050793;28;20036;-79
2021/01/31 10:26:20;;;;;;;2.70;0.40;;;12.60;86.60;;;;;;5028151;28;20481;-78
2021/01/31 10:28:52;;;;;;;3.17;0.60;;;12.60;86.60;;;;;;5036036;28;20036;-78
2021/01/31 10:31:29;;;;;;;0.28;0.20;;;12.60;86.60;;;;;;5052257;28;20045;-77
2021/01/31 10:34:00;;;;;;;0.30;0.13;;;12.50;86.60;;;;;;5052243;28;20021;-78
2021/01/31 10:36:40;;;;;;;0.30;0.05;;;12.50;86.70;;;;;;5019696;28;20049;-78
2021/01/31 10:39:09;;;;;;;0.75;0.20;;;12.50;86.80;;;;;;5051679;28;20366;-78
2021/01/31 10:41:39;;;;;;;1.75;0.22;;;12.50;86.90;;;;;;5052863;28;20041;-78
2021/01/31 10:44:11;;;;;;;1.38;0.57;;;12.60;87.00;;;;;;5050561;28;20087;-77
2021/01/31 10:46:38;;;;;;;0.10;0.00;;;12.70;86.80;;;;;;5051030;28;20033;-80
2021/01/31 10:49:04;;;;;;;0.57;0.08;;;12.90;86.40;;;;;;5051217;28;20092;-80
2021/01/31 10:51:32;;;;;;;0.00;0.00;;;13.10;86.10;;;;;;5052048;28;20083;-79
2021/01/31 10:53:59;;;;;;;0.17;0.10;;;13.20;85.90;;;;;;5049508;28;20025;-78
2021/01/31 10:56:25;;;;;;;0.00;0.00;;;13.20;85.70;;;;;;5048196;28;20420;-78
2021/01/31 10:58:51;;;;;;;0.10;0.00;;;13.30;85.70;;;;;;5050584;28;20396;-78
2021/01/31 11:01:18;;;;;;;0.17;0.00;;;13.30;85.50;;;;;;5049349;28;20036;-79
2021/01/31 11:03:44;;;;;;;0.55;0.40;;;13.40;85.50;;;;;;5051369;28;20044;-80
2021/01/31 11:06:10;;;;;;;0.20;0.13;;;13.50;85.50;;;;;;5017666;28;20045;-85
2021/01/31 11:08:36;;;;;;;1.30;0.57;;;13.50;85.40;;;;;;5051652;28;20477;-81
2021/01/31 11:11:02;;;;;;;0.13;0.08;;;13.70;85.40;;;;;;5050164;28;20025;-80
2021/01/31 11:13:28;;;;;;;0.30;0.00;;;13.80;85.20;;;;;;5033774;28;20043;-79
2021/01/31 11:15:54;;;;;;;0.43;0.10;;;13.90;85.00;;;;;;5050416;28;20041;-79
2021/01/31 11:18:21;;;;;;;0.30;0.25;;;13.90;84.90;;;;;;5050223;28;20029;-80
2021/01/31 11:20:47;;;;;;;0.00;0.00;;;13.90;84.90;;;;;;5049874;28;20029;-80
2021/01/31 11:23:13;;;;;;;0.10;0.00;;;13.90;84.90;;;;;;5052373;28;20477;-79
2021/01/31 11:25:39;;;;;;;0.00;0.00;;;13.80;84.80;;;;;;5050922;28;20024;-80
2021/01/31 11:28:07;;;;;;;0.13;0.00;;;13.80;85.00;;;;;;5051123;28;20044;-80
2021/01/31 11:30:33;;;;;;;0.43;0.10;;;13.70;85.20;;;;;;5032238;28;20291;-80
2021/01/31 11:32:59;;;;;;;0.20;0.00;;;13.70;85.20;;;;;;5047311;28;20497;-81
2021/01/31 11:35:26;;;;;;;0.10;0.00;;;13.60;85.40;;;;;;5048275;28;20063;-79
2021/01/31 11:37:52;;;;;;;0.00;0.00;;;13.50;85.50;;;;;;5051038;28;20029;-77
2021/01/31 11:40:18;;;;;;;0.50;0.17;;;13.60;85.60;;;;;;5049976;28;20047;-78
2021/01/31 11:42:45;;;;;;;0.00;0.00;;;13.60;85.50;;;;;;5033681;28;20481;-78
2021/01/31 11:45:11;;;;;;;0.00;0.00;;;13.60;85.40;;;;;;5030469;28;20069;-78
2021/01/31 11:47:38;;;;;;;0.20;0.10;;;13.60;85.40;;;;;;5028965;28;20030;-82
2021/01/31 11:50:06;;;;;;;0.52;0.20;;;13.60;85.40;;;;;;5043543;28;20042;-79
2021/01/31 11:52:32;;;;;;;0.08;0.00;;;13.60;85.40;;;;;;5041572;28;20040;-79
2021/01/31 11:54:58;;;;;;;0.65;0.10;;;13.60;85.40;;;;;;5027111;28;20041;-80
2021/01/31 11:57:24;;;;;;;0.22;0.10;;;13.60;85.40;;;;;;5048297;28;20033;-77
2021/01/31 11:59:50;;;;;;;0.28;0.13;;;13.50;85.30;;;;;;5048161;28;20029;-80
2021/01/31 12:02:17;;;;;;;0.38;0.10;;;13.40;85.30;;;;;;5051068;28;20396;-79
2021/01/31 12:04:43;;;;;;;0.10;0.00;;;13.40;85.50;;;;;;5026676;28;20041;-78
2021/01/31 12:07:09;;;;;;;0.52;0.03;;;13.40;85.60;;;;;;5038751;28;20063;-80
2021/01/31 12:09:35;;;;;;;0.10;0.00;;;13.40;85.60;;;;;;5048168;28;20047;-80
2021/01/31 12:12:02;;;;;;;0.00;0.00;;;13.40;85.50;;;;;;5048714;28;20025;-82
2021/01/31 12:14:28;;;;;;;0.00;0.00;;;13.40;85.60;;;;;;5050805;28;20377;-80
2021/01/31 12:16:54;;;;;;;0.20;0.05;;;13.40;85.50;;;;;;5048720;28;20392;-78
2021/01/31 12:19:23;;;;;;;0.38;0.10;;;13.40;85.50;;;;;;5048370;28;20044;-78
2021/01/31 12:21:50;;;;;;;0.00;0.00;;;13.40;85.40;;;;;;5049542;28;20029;-78
2021/01/31 12:24:16;;;;;;;1.35;0.15;;;13.50;85.40;;;;;;5047451;28;20029;-79
2021/01/31 12:26:43;;;;;;;0.00;0.00;;;13.50;85.40;;;;;;5048651;28;20029;-78
2021/01/31 12:29:13;;;;;;;0.13;0.03;;;13.50;85.40;;;;;;5048120;28;20025;-78
2021/01/31 12:31:39;;;;;;;0.00;0.00;;;13.50;85.30;;;;;;5030374;28;20404;-78
2021/01/31 12:34:05;;;;;;;0.00;0.00;;;13.60;85.30;;;;;;5048183;28;20037;-78
2021/01/31 12:36:31;;;;;;;0.30;0.15;;;13.50;85.20;;;;;;5046701;28;20072;-80
2021/01/31 12:38:57;;;;;;;0.30;0.00;;;13.60;85.20;;;;;;5043195;28;20041;-78
2021/01/31 12:41:23;;;;;;;0.10;0.00;;;13.60;85.20;;;;;;5050315;28;20477;-78
2021/01/31 12:43:49;;;;;;;0.30;0.10;;;13.60;85.20;;;;;;5048028;28;20027;-79
2021/01/31 12:46:16;;;;;;;0.10;0.10;;;13.60;85.10;;;;;;5047800;28;20100;-77
2021/01/31 12:48:42;;;;;;;0.65;0.20;;;13.70;85.10;;;;;;5049081;28;20021;-78
2021/01/31 12:51:08;;;;;;;0.20;0.10;;;13.70;85.10;;;;;;5050673;28;20029;-78
2021/01/31 12:53:34;;;;;;;0.10;0.00;;;13.60;85.00;;;;;;5014852;28;20048;-77
2021/01/31 12:56:00;;;;;;;0.95;0.30;;;13.60;85.00;;;;;;5048206;28;20539;-78
2021/01/31 12:58:26;;;;;;;0.00;0.00;;;13.60;85.00;;;;;;5031739;28;20044;-78
2021/01/31 13:00:52;;;;;;;0.20;0.00;;;13.60;85.10;;;;;;5048290;28;20037;-79
2021/01/31 13:03:18;;;;;;;0.10;0.00;;;13.50;85.10;;;;;;5047526;28;20473;-77
2021/01/31 13:05:45;;;;;;;0.45;0.03;;;13.60;85.10;;;;;;5047477;28;20041;-79
2021/01/31 13:08:11;;;;;;;0.00;0.00;;;13.50;85.10;;;;;;5047379;28;20045;-78
2021/01/31 13:10:37;;;;;;;0.00;0.00;;;13.60;85.10;;;;;;5049031;28;20029;-78
2021/01/31 13:13:03;;;;;;;0.00;0.00;;;13.50;84.90;;;;;;5049276;28;20058;-79
2021/01/31 13:15:29;;;;;;;0.10;0.10;;;13.60;85.00;;;;;;5047544;28;20068;-78